sensor_id;sensor_type;location;lat;lon;timestamp;P1;durP1;ratioP1;P2;durP2;ratioP2
77136;SDS011;66102;48.542;-2.970;2023-05-20T00:00:39;21.58;;;9.68;;
77136;SDS011;66102;48.542;-2.970;2023-05-20T00:03:05;19.52;;;9.40;;
77136;SDS011;66102;48.542;-2.970;2023-05-20T00:05:31;17.95;;;9.65;;
77136;SDS011;66102;48.542;-2.970;2023-05-20T00:07:57;17.98;;;9.20;;
77136;SDS011;66102;48.542;-2.970;2023-05-20T00:10:24;16.80;;;9.50;;
77136;SDS011;66102;48.542;-2.970;2023-05-20T00:12:50;17.20;;;9.57;;
77136;SDS011;66102;48.542;-2.970;2023-05-20T00:15:16;17.02;;;9.57;;
77136;SDS011;66102;48.542;-2.970;2023-05-20T00:17:42;15.30;;;9.00;;
77136;SDS011;66102;48.542;-2.970;2023-05-20T00:20:08;14.23;;;7.85;;
77136;SDS011;66102;48.542;-2.970;2023-05-20T00:22:35;16.27;;;9.57;;
77136;SDS011;66102;48.542;-2.970;2023-05-20T00:25:01;14.45;;;8.40;;
77136;SDS011;66102;48.542;-2.970;2023-05-20T00:27:27;14.23;;;7.85;;
77136;SDS011;66102;48.542;-2.970;2023-05-20T00:29:53;16.63;;;8.23;;
77136;SDS011;66102;48.542;-2.970;2023-05-20T00:32:19;16.50;;;8.35;;
77136;SDS011;66102;48.542;-2.970;2023-05-20T00:34:54;14.82;;;8.05;;
77136;SDS011;66102;48.542;-2.970;2023-05-20T00:37:21;15.80;;;9.55;;
77136;SDS011;66102;48.542;-2.970;2023-05-20T00:39:47;20.92;;;9.25;;
77136;SDS011;66102;48.542;-2.970;2023-05-20T00:42:20;14.13;;;8.55;;
77136;SDS011;66102;48.542;-2.970;2023-05-20T00:44:46;18.13;;;9.02;;
77136;SDS011;66102;48.542;-2.970;2023-05-20T00:47:12;21.88;;;9.63;;
77136;SDS011;66102;48.542;-2.970;2023-05-20T00:49:39;18.73;;;9.73;;
77136;SDS011;66102;48.542;-2.970;2023-05-20T00:52:05;22.63;;;10.35;;
77136;SDS011;66102;48.542;-2.970;2023-05-20T00:54:31;20.02;;;8.55;;
77136;SDS011;66102;48.542;-2.970;2023-05-20T00:56:57;17.83;;;9.20;;
77136;SDS011;66102;48.542;-2.970;2023-05-20T00:59:24;17.67;;;8.93;;
77136;SDS011;66102;48.542;-2.970;2023-05-20T01:01:51;15.80;;;8.55;;
77136;SDS011;66102;48.542;-2.970;2023-05-20T01:04:17;18.73;;;8.95;;
77136;SDS011;66102;48.542;-2.970;2023-05-20T01:06:43;18.13;;;7.82;;
77136;SDS011;66102;48.542;-2.970;2023-05-20T01:09:10;15.98;;;8.80;;
77136;SDS011;66102;48.542;-2.970;2023-05-20T01:11:37;18.13;;;9.07;;
77136;SDS011;66102;48.542;-2.970;2023-05-20T01:14:07;17.45;;;7.88;;
77136;SDS011;66102;48.542;-2.970;2023-05-20T01:16:37;18.08;;;9.05;;
77136;SDS011;66102;48.542;-2.970;2023-05-20T01:19:04;16.60;;;8.35;;
77136;SDS011;66102;48.542;-2.970;2023-05-20T01:21:34;16.58;;;8.80;;
77136;SDS011;66102;48.542;-2.970;2023-05-20T01:24:01;14.52;;;7.70;;
77136;SDS011;66102;48.542;-2.970;2023-05-20T01:26:29;18.17;;;8.07;;
77136;SDS011;66102;48.542;-2.970;2023-05-20T01:28:57;19.33;;;8.35;;
77136;SDS011;66102;48.542;-2.970;2023-05-20T01:31:28;17.05;;;8.35;;
77136;SDS011;66102;48.542;-2.970;2023-05-20T01:33:56;17.38;;;7.82;;
77136;SDS011;66102;48.542;-2.970;2023-05-20T01:36:23;17.27;;;9.43;;
77136;SDS011;66102;48.542;-2.970;2023-05-20T01:38:50;16.70;;;8.57;;
77136;SDS011;66102;48.542;-2.970;2023-05-20T01:41:17;17.95;;;9.07;;
77136;SDS011;66102;48.542;-2.970;2023-05-20T01:43:44;13.70;;;7.80;;
77136;SDS011;66102;48.542;-2.970;2023-05-20T01:46:11;14.50;;;8.45;;
77136;SDS011;66102;48.542;-2.970;2023-05-20T01:48:37;13.73;;;7.78;;
77136;SDS011;66102;48.542;-2.970;2023-05-20T01:51:03;19.27;;;8.95;;
77136;SDS011;66102;48.542;-2.970;2023-05-20T01:53:29;16.80;;;9.13;;
77136;SDS011;66102;48.542;-2.970;2023-05-20T01:55:55;16.85;;;7.72;;
77136;SDS011;66102;48.542;-2.970;2023-05-20T01:58:21;16.65;;;8.18;;
77136;SDS011;66102;48.542;-2.970;2023-05-20T02:00:47;15.55;;;8.98;;
77136;SDS011;66102;48.542;-2.970;2023-05-20T02:03:13;13.13;;;7.38;;
77136;SDS011;66102;48.542;-2.970;2023-05-20T02:05:39;14.80;;;6.43;;
77136;SDS011;66102;48.542;-2.970;2023-05-20T02:08:05;17.25;;;6.90;;
77136;SDS011;66102;48.542;-2.970;2023-05-20T02:10:31;15.68;;;7.60;;
77136;SDS011;66102;48.542;-2.970;2023-05-20T02:12:57;16.95;;;7.55;;
77136;SDS011;66102;48.542;-2.970;2023-05-20T02:15:23;14.35;;;7.18;;
77136;SDS011;66102;48.542;-2.970;2023-05-20T02:17:50;15.95;;;7.10;;
77136;SDS011;66102;48.542;-2.970;2023-05-20T02:20:16;16.02;;;7.05;;
77136;SDS011;66102;48.542;-2.970;2023-05-20T02:22:42;13.10;;;6.47;;
77136;SDS011;66102;48.542;-2.970;2023-05-20T02:25:08;14.60;;;7.70;;
77136;SDS011;66102;48.542;-2.970;2023-05-20T02:27:34;17.40;;;7.63;;
77136;SDS011;66102;48.542;-2.970;2023-05-20T02:30:00;16.85;;;8.45;;
77136;SDS011;66102;48.542;-2.970;2023-05-20T02:32:26;16.80;;;8.65;;
77136;SDS011;66102;48.542;-2.970;2023-05-20T02:34:53;16.40;;;8.13;;
77136;SDS011;66102;48.542;-2.970;2023-05-20T02:37:20;15.55;;;7.72;;
77136;SDS011;66102;48.542;-2.970;2023-05-20T02:39:46;15.02;;;7.45;;
77136;SDS011;66102;48.542;-2.970;2023-05-20T02:42:12;16.55;;;8.43;;
77136;SDS011;66102;48.542;-2.970;2023-05-20T02:44:38;15.57;;;7.75;;
77136;SDS011;66102;48.542;-2.970;2023-05-20T02:47:05;18.00;;;7.75;;
77136;SDS011;66102;48.542;-2.970;2023-05-20T02:49:31;17.27;;;8.25;;
77136;SDS011;66102;48.542;-2.970;2023-05-20T02:51:57;17.25;;;8.57;;
77136;SDS011;66102;48.542;-2.970;2023-05-20T02:54:23;17.73;;;7.35;;
77136;SDS011;66102;48.542;-2.970;2023-05-20T02:56:49;15.90;;;7.78;;
77136;SDS011;66102;48.542;-2.970;2023-05-20T02:59:15;16.80;;;8.05;;
77136;SDS011;66102;48.542;-2.970;2023-05-20T03:01:41;15.40;;;8.00;;
77136;SDS011;66102;48.542;-2.970;2023-05-20T03:04:07;13.88;;;8.20;;
77136;SDS011;66102;48.542;-2.970;2023-05-20T03:06:33;16.42;;;8.88;;
77136;SDS011;66102;48.542;-2.970;2023-05-20T03:08:59;15.77;;;8.23;;
77136;SDS011;66102;48.542;-2.970;2023-05-20T03:11:25;13.85;;;6.82;;
77136;SDS011;66102;48.542;-2.970;2023-05-20T03:13:51;16.25;;;6.78;;
77136;SDS011;66102;48.542;-2.970;2023-05-20T03:16:17;13.85;;;7.78;;
77136;SDS011;66102;48.542;-2.970;2023-05-20T03:18:43;17.73;;;8.55;;
77136;SDS011;66102;48.542;-2.970;2023-05-20T03:21:10;17.88;;;8.63;;
77136;SDS011;66102;48.542;-2.970;2023-05-20T03:23:36;17.55;;;8.35;;
77136;SDS011;66102;48.542;-2.970;2023-05-20T03:26:02;14.20;;;7.20;;
77136;SDS011;66102;48.542;-2.970;2023-05-20T03:28:28;20.98;;;7.20;;
77136;SDS011;66102;48.542;-2.970;2023-05-20T03:30:54;16.90;;;8.00;;
77136;SDS011;66102;48.542;-2.970;2023-05-20T03:33:20;14.93;;;7.15;;
77136;SDS011;66102;48.542;-2.970;2023-05-20T03:35:50;14.10;;;7.15;;
77136;SDS011;66102;48.542;-2.970;2023-05-20T03:38:16;15.48;;;8.25;;
77136;SDS011;66102;48.542;-2.970;2023-05-20T03:40:42;14.82;;;7.45;;
77136;SDS011;66102;48.542;-2.970;2023-05-20T03:43:08;15.55;;;7.38;;
77136;SDS011;66102;48.542;-2.970;2023-05-20T03:45:34;14.90;;;7.45;;
77136;SDS011;66102;48.542;-2.970;2023-05-20T03:48:00;15.27;;;8.23;;
77136;SDS011;66102;48.542;-2.970;2023-05-20T03:50:27;19.00;;;8.68;;
77136;SDS011;66102;48.542;-2.970;2023-05-20T03:52:55;14.15;;;7.35;;
77136;SDS011;66102;48.542;-2.970;2023-05-20T03:55:21;15.60;;;8.52;;
77136;SDS011;66102;48.542;-2.970;2023-05-20T03:57:47;14.10;;;7.22;;
77136;SDS011;66102;48.542;-2.970;2023-05-20T04:00:13;14.30;;;7.05;;
77136;SDS011;66102;48.542;-2.970;2023-05-20T04:02:40;17.90;;;8.95;;
77136;SDS011;66102;48.542;-2.970;2023-05-20T04:05:06;17.67;;;8.48;;
77136;SDS011;66102;48.542;-2.970;2023-05-20T04:07:34;14.93;;;7.88;;
77136;SDS011;66102;48.542;-2.970;2023-05-20T04:10:00;15.65;;;7.25;;
77136;SDS011;66102;48.542;-2.970;2023-05-20T04:12:26;12.90;;;7.47;;
77136;SDS011;66102;48.542;-2.970;2023-05-20T04:14:58;15.57;;;6.85;;
77136;SDS011;66102;48.542;-2.970;2023-05-20T04:17:25;14.35;;;7.72;;
77136;SDS011;66102;48.542;-2.970;2023-05-20T04:19:53;14.43;;;7.55;;
77136;SDS011;66102;48.542;-2.970;2023-05-20T04:22:20;17.00;;;7.85;;
77136;SDS011;66102;48.542;-2.970;2023-05-20T04:24:46;13.57;;;7.68;;
77136;SDS011;66102;48.542;-2.970;2023-05-20T04:27:12;13.63;;;7.00;;
77136;SDS011;66102;48.542;-2.970;2023-05-20T04:29:40;17.25;;;8.43;;
77136;SDS011;66102;48.542;-2.970;2023-05-20T04:32:11;14.75;;;7.05;;
77136;SDS011;66102;48.542;-2.970;2023-05-20T04:34:37;19.45;;;7.32;;
77136;SDS011;66102;48.542;-2.970;2023-05-20T04:37:03;15.43;;;7.47;;
77136;SDS011;66102;48.542;-2.970;2023-05-20T04:39:31;15.93;;;8.15;;
77136;SDS011;66102;48.542;-2.970;2023-05-20T04:41:58;13.45;;;7.57;;
77136;SDS011;66102;48.542;-2.970;2023-05-20T04:44:24;13.38;;;6.30;;
77136;SDS011;66102;48.542;-2.970;2023-05-20T04:46:50;16.05;;;7.35;;
77136;SDS011;66102;48.542;-2.970;2023-05-20T04:49:17;15.82;;;7.28;;
77136;SDS011;66102;48.542;-2.970;2023-05-20T04:51:43;13.90;;;6.28;;
77136;SDS011;66102;48.542;-2.970;2023-05-20T04:54:10;12.32;;;7.13;;
77136;SDS011;66102;48.542;-2.970;2023-05-20T04:56:37;12.88;;;6.97;;
77136;SDS011;66102;48.542;-2.970;2023-05-20T04:59:04;13.23;;;7.13;;
77136;SDS011;66102;48.542;-2.970;2023-05-20T05:01:30;13.57;;;6.85;;
77136;SDS011;66102;48.542;-2.970;2023-05-20T05:03:56;14.88;;;7.30;;
77136;SDS011;66102;48.542;-2.970;2023-05-20T05:06:22;14.43;;;7.25;;
77136;SDS011;66102;48.542;-2.970;2023-05-20T05:08:48;14.85;;;7.55;;
77136;SDS011;66102;48.542;-2.970;2023-05-20T05:11:14;17.52;;;6.65;;
77136;SDS011;66102;48.542;-2.970;2023-05-20T05:13:40;13.68;;;6.93;;
77136;SDS011;66102;48.542;-2.970;2023-05-20T05:16:06;12.23;;;6.25;;
77136;SDS011;66102;48.542;-2.970;2023-05-20T05:18:32;14.90;;;6.38;;
77136;SDS011;66102;48.542;-2.970;2023-05-20T05:21:02;15.02;;;7.63;;
77136;SDS011;66102;48.542;-2.970;2023-05-20T05:23:28;16.73;;;7.47;;
77136;SDS011;66102;48.542;-2.970;2023-05-20T05:25:54;14.50;;;7.20;;
77136;SDS011;66102;48.542;-2.970;2023-05-20T05:28:21;14.75;;;6.88;;
77136;SDS011;66102;48.542;-2.970;2023-05-20T05:30:47;16.13;;;7.30;;
77136;SDS011;66102;48.542;-2.970;2023-05-20T05:33:13;17.35;;;8.00;;
77136;SDS011;66102;48.542;-2.970;2023-05-20T05:35:40;12.88;;;7.20;;
77136;SDS011;66102;48.542;-2.970;2023-05-20T05:38:06;16.30;;;7.95;;
77136;SDS011;66102;48.542;-2.970;2023-05-20T05:40:32;13.40;;;6.70;;
77136;SDS011;66102;48.542;-2.970;2023-05-20T05:42:59;12.52;;;6.28;;
77136;SDS011;66102;48.542;-2.970;2023-05-20T05:45:25;12.20;;;6.00;;
77136;SDS011;66102;48.542;-2.970;2023-05-20T05:47:51;12.27;;;6.65;;
77136;SDS011;66102;48.542;-2.970;2023-05-20T05:50:17;15.07;;;7.03;;
77136;SDS011;66102;48.542;-2.970;2023-05-20T05:52:43;12.38;;;6.55;;
77136;SDS011;66102;48.542;-2.970;2023-05-20T05:55:09;16.23;;;7.10;;
77136;SDS011;66102;48.542;-2.970;2023-05-20T05:57:35;14.02;;;7.93;;
77136;SDS011;66102;48.542;-2.970;2023-05-20T06:00:01;18.75;;;8.38;;
77136;SDS011;66102;48.542;-2.970;2023-05-20T06:02:28;14.40;;;7.15;;
77136;SDS011;66102;48.542;-2.970;2023-05-20T06:04:54;16.83;;;7.70;;
77136;SDS011;66102;48.542;-2.970;2023-05-20T06:07:21;12.52;;;7.80;;
77136;SDS011;66102;48.542;-2.970;2023-05-20T06:09:47;14.63;;;7.57;;
77136;SDS011;66102;48.542;-2.970;2023-05-20T06:12:13;18.23;;;8.07;;
77136;SDS011;66102;48.542;-2.970;2023-05-20T06:14:40;15.07;;;8.02;;
77136;SDS011;66102;48.542;-2.970;2023-05-20T06:17:06;17.60;;;9.02;;
77136;SDS011;66102;48.542;-2.970;2023-05-20T06:19:32;16.73;;;8.57;;
77136;SDS011;66102;48.542;-2.970;2023-05-20T06:21:58;16.23;;;8.45;;
77136;SDS011;66102;48.542;-2.970;2023-05-20T06:24:24;16.80;;;9.10;;
77136;SDS011;66102;48.542;-2.970;2023-05-20T06:26:50;20.73;;;10.75;;
77136;SDS011;66102;48.542;-2.970;2023-05-20T06:29:16;17.20;;;9.13;;
77136;SDS011;66102;48.542;-2.970;2023-05-20T06:31:42;17.45;;;9.88;;
77136;SDS011;66102;48.542;-2.970;2023-05-20T06:34:08;19.13;;;10.68;;
77136;SDS011;66102;48.542;-2.970;2023-05-20T06:36:34;19.83;;;10.20;;
77136;SDS011;66102;48.542;-2.970;2023-05-20T06:39:00;18.38;;;10.90;;
77136;SDS011;66102;48.542;-2.970;2023-05-20T06:41:27;21.75;;;10.93;;
77136;SDS011;66102;48.542;-2.970;2023-05-20T06:43:53;21.52;;;11.38;;
77136;SDS011;66102;48.542;-2.970;2023-05-20T06:46:19;17.27;;;10.43;;
77136;SDS011;66102;48.542;-2.970;2023-05-20T06:48:45;21.38;;;11.98;;
77136;SDS011;66102;48.542;-2.970;2023-05-20T06:51:11;21.17;;;11.85;;
77136;SDS011;66102;48.542;-2.970;2023-05-20T06:53:38;21.45;;;11.85;;
77136;SDS011;66102;48.542;-2.970;2023-05-20T06:56:04;19.55;;;10.57;;
77136;SDS011;66102;48.542;-2.970;2023-05-20T06:58:30;18.92;;;9.65;;
77136;SDS011;66102;48.542;-2.970;2023-05-20T07:00:56;18.27;;;8.77;;
77136;SDS011;66102;48.542;-2.970;2023-05-20T07:03:22;16.48;;;8.63;;
77136;SDS011;66102;48.542;-2.970;2023-05-20T07:05:49;15.82;;;6.82;;
77136;SDS011;66102;48.542;-2.970;2023-05-20T07:08:15;13.23;;;6.40;;
77136;SDS011;66102;48.542;-2.970;2023-05-20T07:10:42;15.15;;;7.10;;
77136;SDS011;66102;48.542;-2.970;2023-05-20T07:13:08;13.00;;;5.93;;
77136;SDS011;66102;48.542;-2.970;2023-05-20T07:15:34;13.13;;;5.43;;
77136;SDS011;66102;48.542;-2.970;2023-05-20T07:18:01;13.32;;;4.60;;
77136;SDS011;66102;48.542;-2.970;2023-05-20T07:20:27;14.05;;;5.35;;
77136;SDS011;66102;48.542;-2.970;2023-05-20T07:22:53;13.60;;;4.53;;
77136;SDS011;66102;48.542;-2.970;2023-05-20T07:25:19;12.68;;;5.55;;
77136;SDS011;66102;48.542;-2.970;2023-05-20T07:27:45;16.55;;;5.50;;
77136;SDS011;66102;48.542;-2.970;2023-05-20T07:30:11;11.70;;;4.95;;
77136;SDS011;66102;48.542;-2.970;2023-05-20T07:32:38;9.75;;;4.97;;
77136;SDS011;66102;48.542;-2.970;2023-05-20T07:35:05;11.77;;;5.03;;
77136;SDS011;66102;48.542;-2.970;2023-05-20T07:37:31;17.58;;;5.22;;
77136;SDS011;66102;48.542;-2.970;2023-05-20T07:39:57;14.98;;;5.20;;
77136;SDS011;66102;48.542;-2.970;2023-05-20T07:42:23;11.63;;;4.10;;
77136;SDS011;66102;48.542;-2.970;2023-05-20T07:44:49;9.95;;;4.55;;
77136;SDS011;66102;48.542;-2.970;2023-05-20T07:47:15;12.30;;;4.60;;
77136;SDS011;66102;48.542;-2.970;2023-05-20T07:49:41;15.45;;;4.78;;
77136;SDS011;66102;48.542;-2.970;2023-05-20T07:52:08;12.20;;;4.03;;
77136;SDS011;66102;48.542;-2.970;2023-05-20T07:54:34;10.35;;;4.32;;
77136;SDS011;66102;48.542;-2.970;2023-05-20T07:57:00;12.80;;;3.92;;
77136;SDS011;66102;48.542;-2.970;2023-05-20T07:59:26;11.90;;;5.22;;
77136;SDS011;66102;48.542;-2.970;2023-05-20T08:01:52;12.80;;;4.30;;
77136;SDS011;66102;48.542;-2.970;2023-05-20T08:04:18;14.88;;;5.43;;
77136;SDS011;66102;48.542;-2.970;2023-05-20T08:06:44;13.02;;;4.53;;
77136;SDS011;66102;48.542;-2.970;2023-05-20T08:09:10;14.43;;;5.43;;
77136;SDS011;66102;48.542;-2.970;2023-05-20T08:11:36;12.45;;;4.90;;
77136;SDS011;66102;48.542;-2.970;2023-05-20T08:14:03;17.13;;;4.85;;
77136;SDS011;66102;48.542;-2.970;2023-05-20T08:16:30;15.60;;;4.65;;
77136;SDS011;66102;48.542;-2.970;2023-05-20T08:18:56;13.07;;;5.00;;
77136;SDS011;66102;48.542;-2.970;2023-05-20T08:21:22;15.13;;;4.82;;
77136;SDS011;66102;48.542;-2.970;2023-05-20T08:23:48;16.02;;;5.07;;
77136;SDS011;66102;48.542;-2.970;2023-05-20T08:26:14;11.82;;;4.95;;
77136;SDS011;66102;48.542;-2.970;2023-05-20T08:28:40;14.23;;;4.72;;
77136;SDS011;66102;48.542;-2.970;2023-05-20T08:31:06;16.27;;;5.10;;
77136;SDS011;66102;48.542;-2.970;2023-05-20T08:33:32;11.48;;;4.85;;
77136;SDS011;66102;48.542;-2.970;2023-05-20T08:35:58;14.98;;;4.47;;
77136;SDS011;66102;48.542;-2.970;2023-05-20T08:38:24;16.45;;;5.68;;
77136;SDS011;66102;48.542;-2.970;2023-05-20T08:40:51;12.23;;;5.05;;
77136;SDS011;66102;48.542;-2.970;2023-05-20T08:43:18;14.88;;;5.93;;
77136;SDS011;66102;48.542;-2.970;2023-05-20T08:45:44;17.10;;;5.97;;
77136;SDS011;66102;48.542;-2.970;2023-05-20T08:48:10;14.98;;;5.38;;
77136;SDS011;66102;48.542;-2.970;2023-05-20T08:50:36;15.25;;;6.03;;
77136;SDS011;66102;48.542;-2.970;2023-05-20T08:53:03;19.52;;;5.63;;
77136;SDS011;66102;48.542;-2.970;2023-05-20T08:55:31;15.48;;;5.75;;
77136;SDS011;66102;48.542;-2.970;2023-05-20T08:58:01;14.27;;;5.25;;
77136;SDS011;66102;48.542;-2.970;2023-05-20T09:00:27;13.52;;;5.00;;
77136;SDS011;66102;48.542;-2.970;2023-05-20T09:02:54;15.13;;;5.15;;
77136;SDS011;66102;48.542;-2.970;2023-05-20T09:05:20;13.15;;;4.63;;
77136;SDS011;66102;48.542;-2.970;2023-05-20T09:07:47;15.60;;;5.38;;
77136;SDS011;66102;48.542;-2.970;2023-05-20T09:10:13;15.18;;;4.88;;
77136;SDS011;66102;48.542;-2.970;2023-05-20T09:12:39;12.75;;;4.85;;
77136;SDS011;66102;48.542;-2.970;2023-05-20T09:15:06;15.68;;;5.55;;
77136;SDS011;66102;48.542;-2.970;2023-05-20T09:17:35;14.18;;;5.50;;
77136;SDS011;66102;48.542;-2.970;2023-05-20T09:20:05;17.33;;;5.85;;
77136;SDS011;66102;48.542;-2.970;2023-05-20T09:22:32;11.68;;;5.43;;
77136;SDS011;66102;48.542;-2.970;2023-05-20T09:24:58;15.75;;;5.18;;
77136;SDS011;66102;48.542;-2.970;2023-05-20T09:27:24;12.27;;;4.75;;
77136;SDS011;66102;48.542;-2.970;2023-05-20T09:29:50;15.07;;;5.95;;
77136;SDS011;66102;48.542;-2.970;2023-05-20T09:32:17;13.45;;;5.22;;
77136;SDS011;66102;48.542;-2.970;2023-05-20T09:34:47;18.58;;;6.18;;
77136;SDS011;66102;48.542;-2.970;2023-05-20T09:37:15;12.45;;;4.93;;
77136;SDS011;66102;48.542;-2.970;2023-05-20T09:40:04;13.40;;;5.18;;
77136;SDS011;66102;48.542;-2.970;2023-05-20T09:45:05;16.65;;;6.45;;
77136;SDS011;66102;48.542;-2.970;2023-05-20T09:47:33;16.05;;;5.72;;
77136;SDS011;66102;48.542;-2.970;2023-05-20T09:50:01;16.73;;;6.20;;
77136;SDS011;66102;48.542;-2.970;2023-05-20T09:52:27;17.27;;;5.63;;
77136;SDS011;66102;48.542;-2.970;2023-05-20T09:54:54;19.58;;;5.93;;
77136;SDS011;66102;48.542;-2.970;2023-05-20T09:57:21;15.05;;;5.55;;
77136;SDS011;66102;48.542;-2.970;2023-05-20T09:59:47;15.05;;;6.15;;
77136;SDS011;66102;48.542;-2.970;2023-05-20T10:02:15;17.95;;;6.22;;
77136;SDS011;66102;48.542;-2.970;2023-05-20T10:04:42;15.52;;;5.95;;
77136;SDS011;66102;48.542;-2.970;2023-05-20T10:15:16;12.63;;;5.10;;
77136;SDS011;66102;48.542;-2.970;2023-05-20T10:20:12;17.38;;;6.28;;
77136;SDS011;66102;48.542;-2.970;2023-05-20T10:22:38;12.52;;;5.45;;
77136;SDS011;66102;48.542;-2.970;2023-05-20T10:25:05;15.23;;;6.03;;
77136;SDS011;66102;48.542;-2.970;2023-05-20T10:27:41;18.52;;;6.63;;
77136;SDS011;66102;48.542;-2.970;2023-05-20T10:30:14;12.77;;;6.38;;
77136;SDS011;66102;48.542;-2.970;2023-05-20T10:32:47;17.10;;;6.90;;
77136;SDS011;66102;48.542;-2.970;2023-05-20T10:35:19;15.38;;;7.05;;
77136;SDS011;66102;48.542;-2.970;2023-05-20T10:37:46;18.58;;;7.38;;
77136;SDS011;66102;48.542;-2.970;2023-05-20T10:40:15;21.65;;;7.15;;
77136;SDS011;66102;48.542;-2.970;2023-05-20T10:42:42;16.10;;;6.88;;
77136;SDS011;66102;48.542;-2.970;2023-05-20T10:45:10;20.55;;;7.47;;
77136;SDS011;66102;48.542;-2.970;2023-05-20T10:47:36;14.63;;;6.72;;
77136;SDS011;66102;48.542;-2.970;2023-05-20T10:50:06;15.95;;;6.28;;
77136;SDS011;66102;48.542;-2.970;2023-05-20T10:52:35;16.58;;;7.00;;
77136;SDS011;66102;48.542;-2.970;2023-05-20T10:55:02;15.10;;;7.82;;
77136;SDS011;66102;48.542;-2.970;2023-05-20T10:57:29;14.82;;;6.88;;
77136;SDS011;66102;48.542;-2.970;2023-05-20T10:59:56;22.85;;;7.07;;
77136;SDS011;66102;48.542;-2.970;2023-05-20T11:02:23;17.80;;;6.20;;
77136;SDS011;66102;48.542;-2.970;2023-05-20T11:04:57;20.20;;;7.45;;
77136;SDS011;66102;48.542;-2.970;2023-05-20T11:07:23;15.25;;;6.38;;
77136;SDS011;66102;48.542;-2.970;2023-05-20T11:09:50;16.73;;;6.95;;
77136;SDS011;66102;48.542;-2.970;2023-05-20T11:12:16;16.85;;;6.85;;
77136;SDS011;66102;48.542;-2.970;2023-05-20T11:14:42;18.73;;;7.00;;
77136;SDS011;66102;48.542;-2.970;2023-05-20T11:17:08;17.17;;;7.28;;
77136;SDS011;66102;48.542;-2.970;2023-05-20T11:19:36;15.80;;;6.30;;
77136;SDS011;66102;48.542;-2.970;2023-05-20T11:22:02;14.55;;;6.63;;
77136;SDS011;66102;48.542;-2.970;2023-05-20T11:24:28;19.05;;;6.38;;
77136;SDS011;66102;48.542;-2.970;2023-05-20T11:26:54;19.08;;;6.82;;
77136;SDS011;66102;48.542;-2.970;2023-05-20T11:29:21;15.35;;;5.80;;
77136;SDS011;66102;48.542;-2.970;2023-05-20T11:31:50;15.45;;;6.47;;
77136;SDS011;66102;48.542;-2.970;2023-05-20T11:34:19;17.73;;;6.43;;
77136;SDS011;66102;48.542;-2.970;2023-05-20T11:36:46;16.25;;;5.78;;
77136;SDS011;66102;48.542;-2.970;2023-05-20T11:39:14;17.92;;;5.63;;
77136;SDS011;66102;48.542;-2.970;2023-05-20T11:41:40;17.92;;;6.50;;
77136;SDS011;66102;48.542;-2.970;2023-05-20T11:44:10;16.67;;;6.38;;
77136;SDS011;66102;48.542;-2.970;2023-05-20T11:46:41;16.20;;;6.93;;
77136;SDS011;66102;48.542;-2.970;2023-05-20T11:49:07;15.50;;;6.15;;
77136;SDS011;66102;48.542;-2.970;2023-05-20T11:51:33;15.65;;;6.20;;
77136;SDS011;66102;48.542;-2.970;2023-05-20T11:54:03;21.02;;;6.85;;
77136;SDS011;66102;48.542;-2.970;2023-05-20T11:56:30;15.60;;;6.88;;
77136;SDS011;66102;48.542;-2.970;2023-05-20T11:58:56;18.25;;;6.90;;
77136;SDS011;66102;48.542;-2.970;2023-05-20T12:01:22;17.20;;;7.07;;
77136;SDS011;66102;48.542;-2.970;2023-05-20T12:03:49;13.20;;;6.30;;
77136;SDS011;66102;48.542;-2.970;2023-05-20T12:06:15;16.95;;;6.95;;
77136;SDS011;66102;48.542;-2.970;2023-05-20T12:08:42;16.85;;;7.10;;
77136;SDS011;66102;48.542;-2.970;2023-05-20T12:11:08;18.35;;;7.68;;
77136;SDS011;66102;48.542;-2.970;2023-05-20T12:13:34;16.92;;;6.57;;
77136;SDS011;66102;48.542;-2.970;2023-05-20T12:16:00;19.42;;;7.47;;
77136;SDS011;66102;48.542;-2.970;2023-05-20T12:18:26;19.98;;;6.93;;
77136;SDS011;66102;48.542;-2.970;2023-05-20T12:20:52;19.00;;;8.15;;
77136;SDS011;66102;48.542;-2.970;2023-05-20T12:23:18;16.95;;;6.57;;
77136;SDS011;66102;48.542;-2.970;2023-05-20T12:25:45;15.30;;;7.80;;
77136;SDS011;66102;48.542;-2.970;2023-05-20T12:28:13;14.95;;;7.38;;
77136;SDS011;66102;48.542;-2.970;2023-05-20T12:30:40;20.02;;;7.70;;
77136;SDS011;66102;48.542;-2.970;2023-05-20T12:33:06;17.88;;;8.35;;
77136;SDS011;66102;48.542;-2.970;2023-05-20T12:38:02;17.13;;;7.15;;
77136;SDS011;66102;48.542;-2.970;2023-05-20T12:40:28;16.42;;;8.02;;
77136;SDS011;66102;48.542;-2.970;2023-05-20T12:42:54;17.08;;;7.40;;
77136;SDS011;66102;48.542;-2.970;2023-05-20T12:45:20;18.13;;;7.65;;
77136;SDS011;66102;48.542;-2.970;2023-05-20T12:47:46;16.30;;;7.47;;
77136;SDS011;66102;48.542;-2.970;2023-05-20T12:50:12;16.30;;;7.70;;
77136;SDS011;66102;48.542;-2.970;2023-05-20T12:52:38;24.63;;;7.15;;
77136;SDS011;66102;48.542;-2.970;2023-05-20T12:55:05;15.30;;;8.00;;
77136;SDS011;66102;48.542;-2.970;2023-05-20T12:57:37;20.98;;;8.85;;
77136;SDS011;66102;48.542;-2.970;2023-05-20T13:00:04;17.73;;;8.07;;
77136;SDS011;66102;48.542;-2.970;2023-05-20T13:02:30;21.70;;;9.15;;
77136;SDS011;66102;48.542;-2.970;2023-05-20T13:04:56;20.77;;;8.43;;
77136;SDS011;66102;48.542;-2.970;2023-05-20T13:07:22;20.83;;;8.52;;
77136;SDS011;66102;48.542;-2.970;2023-05-20T13:09:50;21.67;;;8.63;;
77136;SDS011;66102;48.542;-2.970;2023-05-20T13:12:16;18.15;;;8.27;;
77136;SDS011;66102;48.542;-2.970;2023-05-20T13:14:42;22.75;;;10.05;;
77136;SDS011;66102;48.542;-2.970;2023-05-20T13:17:10;21.45;;;9.40;;
77136;SDS011;66102;48.542;-2.970;2023-05-20T13:19:36;19.63;;;8.57;;
77136;SDS011;66102;48.542;-2.970;2023-05-20T13:22:02;20.98;;;10.13;;
77136;SDS011;66102;48.542;-2.970;2023-05-20T13:24:28;17.75;;;8.38;;
77136;SDS011;66102;48.542;-2.970;2023-05-20T13:26:54;20.45;;;8.75;;
77136;SDS011;66102;48.542;-2.970;2023-05-20T13:29:20;19.05;;;8.90;;
77136;SDS011;66102;48.542;-2.970;2023-05-20T13:31:46;26.90;;;10.02;;
77136;SDS011;66102;48.542;-2.970;2023-05-20T13:34:13;21.02;;;8.50;;
77136;SDS011;66102;48.542;-2.970;2023-05-20T13:36:39;20.23;;;9.52;;
77136;SDS011;66102;48.542;-2.970;2023-05-20T13:39:05;21.10;;;9.98;;
77136;SDS011;66102;48.542;-2.970;2023-05-20T13:41:31;22.42;;;9.90;;
77136;SDS011;66102;48.542;-2.970;2023-05-20T13:43:57;26.13;;;9.93;;
77136;SDS011;66102;48.542;-2.970;2023-05-20T13:46:23;23.63;;;9.80;;
77136;SDS011;66102;48.542;-2.970;2023-05-20T13:48:49;22.98;;;10.40;;
77136;SDS011;66102;48.542;-2.970;2023-05-20T13:51:15;21.90;;;10.13;;
77136;SDS011;66102;48.542;-2.970;2023-05-20T13:53:41;27.40;;;10.98;;
77136;SDS011;66102;48.542;-2.970;2023-05-20T13:56:07;22.17;;;10.30;;
77136;SDS011;66102;48.542;-2.970;2023-05-20T13:58:37;23.00;;;10.25;;
77136;SDS011;66102;48.542;-2.970;2023-05-20T14:01:03;26.83;;;11.68;;
77136;SDS011;66102;48.542;-2.970;2023-05-20T14:03:30;22.08;;;9.88;;
77136;SDS011;66102;48.542;-2.970;2023-05-20T14:05:58;22.23;;;10.70;;
77136;SDS011;66102;48.542;-2.970;2023-05-20T14:08:25;19.35;;;10.25;;
77136;SDS011;66102;48.542;-2.970;2023-05-20T14:10:51;23.60;;;11.50;;
77136;SDS011;66102;48.542;-2.970;2023-05-20T14:13:19;21.25;;;12.02;;
77136;SDS011;66102;48.542;-2.970;2023-05-20T14:15:45;25.80;;;10.77;;
77136;SDS011;66102;48.542;-2.970;2023-05-20T14:18:11;23.30;;;10.90;;
77136;SDS011;66102;48.542;-2.970;2023-05-20T14:20:37;20.20;;;9.68;;
77136;SDS011;66102;48.542;-2.970;2023-05-20T14:23:03;25.30;;;12.20;;
77136;SDS011;66102;48.542;-2.970;2023-05-20T14:25:29;24.20;;;11.95;;
77136;SDS011;66102;48.542;-2.970;2023-05-20T14:27:55;27.80;;;11.02;;
77136;SDS011;66102;48.542;-2.970;2023-05-20T14:30:22;26.10;;;12.57;;
77136;SDS011;66102;48.542;-2.970;2023-05-20T14:32:49;20.67;;;11.55;;